createdAt,value
2019-06-15T00:02:11.089Z,1.00
2019-06-15T00:04:41.457Z,1.00
2019-06-15T00:07:11.854Z,1.00
2019-06-15T00:09:42.237Z,1.00
2019-06-15T00:12:12.680Z,1.00
2019-06-15T00:14:43.047Z,1.00
2019-06-15T00:17:13.411Z,1.00
2019-06-15T00:19:43.777Z,1.00
2019-06-15T00:22:14.157Z,1.00
2019-06-15T00:24:44.575Z,1.00
2019-06-15T00:27:14.982Z,1.00
2019-06-15T00:29:45.418Z,1.00
2019-06-15T00:32:15.796Z,1.00
2019-06-15T00:34:46.170Z,1.00
2019-06-15T00:37:16.547Z,1.00
2019-06-15T00:39:46.917Z,1.00
2019-06-15T00:42:17.350Z,1.00
2019-06-15T00:44:47.706Z,1.00
2019-06-15T00:47:18.070Z,1.00
2019-06-15T00:49:48.447Z,1.00
2019-06-15T00:52:18.917Z,1.00
2019-06-15T00:54:50.576Z,1.00
2019-06-15T00:57:21.346Z,1.00
2019-06-15T00:59:51.718Z,1.00
2019-06-15T01:02:22.191Z,1.00
2019-06-15T01:04:52.540Z,1.00
2019-06-15T01:07:22.893Z,1.00
2019-06-15T01:09:53.233Z,1.00
2019-06-15T01:12:23.629Z,1.00
2019-06-15T01:14:54.006Z,34.80
2019-06-15T01:17:24.387Z,1.00
2019-06-15T01:19:54.724Z,1.00
2019-06-15T01:22:25.158Z,1.00
2019-06-15T01:25:05.211Z,1.00
2019-06-15T01:27:27.585Z,1.00
2019-06-15T01:29:58.009Z,1.00
2019-06-15T01:32:28.382Z,1.00
2019-06-15T01:34:58.788Z,1.00
2019-06-15T01:37:29.238Z,99.90
2019-06-15T01:39:59.592Z,1.00
2019-06-15T01:42:29.986Z,99.90
2019-06-15T01:45:00.339Z,99.90
2019-06-15T01:47:30.796Z,1.00
2019-06-15T01:50:01.144Z,1.00
2019-06-15T01:52:31.540Z,1.00
2019-06-15T01:55:01.958Z,1.00
2019-06-15T01:57:32.354Z,99.90
2019-06-15T02:00:03.019Z,1.00
2019-06-15T02:02:33.456Z,99.90
2019-06-15T02:05:04.281Z,99.90
2019-06-15T02:07:34.671Z,99.90
2019-06-15T02:10:05.729Z,99.90
2019-06-15T02:12:36.098Z,1.00
2019-06-15T02:15:06.678Z,99.90
2019-06-15T02:17:37.053Z,99.90
2019-06-15T02:20:07.522Z,99.90
2019-06-15T02:22:37.914Z,31.80
2019-06-15T02:25:08.570Z,99.90
2019-06-15T02:27:38.943Z,99.90
2019-06-15T02:30:09.730Z,1.00
2019-06-15T02:32:40.126Z,17.30
2019-06-15T02:35:10.663Z,1.00
2019-06-15T02:37:41.027Z,1.00
2019-06-15T02:40:11.404Z,99.90
2019-06-15T02:42:41.863Z,45.00
2019-06-15T02:45:12.583Z,99.90
2019-06-15T02:47:42.954Z,99.90
2019-06-15T02:50:14.408Z,1.00
2019-06-15T02:52:44.789Z,99.90
2019-06-15T02:55:15.178Z,22.00
2019-06-15T02:57:45.582Z,99.90
2019-06-15T03:00:19.135Z,1.00
2019-06-15T03:02:50.038Z,1.00
2019-06-15T03:05:20.455Z,1.00
2019-06-15T03:07:52.242Z,99.90
2019-06-15T03:10:22.611Z,99.90
2019-06-15T03:12:53.193Z,99.90
2019-06-15T03:15:23.573Z,1.00
2019-06-15T03:17:54.031Z,1.00
2019-06-15T03:20:24.402Z,1.00
2019-06-15T03:22:54.791Z,1.00
2019-06-15T03:25:25.260Z,99.90
2019-06-15T03:27:55.659Z,99.90
2019-06-15T03:30:26.032Z,1.00
2019-06-15T03:32:56.426Z,1.00
2019-06-15T03:35:26.792Z,99.90
2019-06-15T03:37:57.272Z,99.90
2019-06-15T03:40:27.626Z,1.00
2019-06-15T03:42:58.077Z,1.00
2019-06-15T03:45:28.430Z,1.00
2019-06-15T03:47:58.794Z,1.00
2019-06-15T03:50:29.132Z,1.00
2019-06-15T03:52:59.558Z,99.90
2019-06-15T03:55:29.914Z,99.90
2019-06-15T03:58:00.303Z,82.20
2019-06-15T04:00:53.895Z,99.90
2019-06-15T04:03:24.271Z,15.50
2019-06-15T04:05:54.640Z,1.00
2019-06-15T04:08:28.018Z,99.90
2019-06-15T04:10:58.432Z,1.00
2019-06-15T04:13:28.867Z,99.90
2019-06-15T04:15:59.297Z,78.10
2019-06-15T04:18:29.693Z,99.90
2019-06-15T04:21:00.070Z,99.90
2019-06-15T04:23:30.498Z,99.90
2019-06-15T04:26:00.894Z,99.90
2019-06-15T04:28:31.259Z,93.80
2019-06-15T04:31:01.605Z,99.90
2019-06-15T04:33:31.966Z,1.00
2019-06-15T04:36:02.308Z,39.50
2019-06-15T04:38:32.672Z,11.80
2019-06-15T04:41:03.029Z,99.90
2019-06-15T04:43:33.445Z,99.90
2019-06-15T04:46:03.905Z,1.00
2019-06-15T04:48:34.457Z,99.90
2019-06-15T04:51:05.958Z,99.90
2019-06-15T04:53:36.314Z,28.70
2019-06-15T04:56:06.724Z,99.90
2019-06-15T04:58:37.123Z,1.00
2019-06-15T05:01:07.475Z,99.90
2019-06-15T05:03:37.843Z,1.00
2019-06-15T05:06:08.199Z,31.70
2019-06-15T05:08:38.668Z,1.00
2019-06-15T05:11:09.039Z,1.00
2019-06-15T05:13:39.472Z,1.00
2019-06-15T05:16:09.970Z,99.90
2019-06-15T05:18:40.346Z,1.00
2019-06-15T05:21:10.735Z,1.00
2019-06-15T05:23:41.083Z,1.00
2019-06-15T05:26:11.437Z,1.00
2019-06-15T05:28:41.861Z,99.90
2019-06-15T05:31:12.234Z,99.90
2019-06-15T05:33:42.614Z,99.90
2019-06-15T05:36:12.988Z,36.90
2019-06-15T05:38:43.391Z,56.40
2019-06-15T05:41:15.696Z,92.00
2019-06-15T05:43:45.848Z,99.90
2019-06-15T05:46:16.216Z,47.00
2019-06-15T05:48:46.598Z,1.00
2019-06-15T05:51:16.978Z,1.00
2019-06-15T05:53:47.370Z,1.00
2019-06-15T05:56:17.738Z,1.00
2019-06-15T05:58:48.115Z,99.90
2019-06-15T06:01:18.591Z,99.90
2019-06-15T06:03:49.010Z,99.90
2019-06-15T06:06:19.377Z,99.90
2019-06-15T06:08:49.789Z,99.90
2019-06-15T06:11:20.163Z,99.90
2019-06-15T06:13:50.558Z,99.90
2019-06-15T06:16:20.920Z,39.80
2019-06-15T06:18:51.305Z,1.00
2019-06-15T06:21:21.664Z,1.00
2019-06-15T06:23:52.055Z,1.00
2019-06-15T06:26:22.418Z,1.00
2019-06-15T06:28:57.284Z,1.00
2019-06-15T06:31:24.864Z,1.00
2019-06-15T06:33:55.262Z,1.00
2019-06-15T06:36:25.642Z,99.90
2019-06-15T06:38:56.162Z,99.90
2019-06-15T06:41:26.574Z,99.90
2019-06-15T06:43:56.935Z,99.90
2019-06-15T06:46:27.344Z,99.90
2019-06-15T06:48:57.750Z,99.90
2019-06-15T06:51:28.156Z,99.90
2019-06-15T06:53:58.564Z,99.90
2019-06-15T06:56:29.100Z,99.90
2019-06-15T06:58:59.514Z,99.90
2019-06-15T07:01:29.901Z,99.90
2019-06-15T07:04:00.324Z,99.90
2019-06-15T07:06:30.870Z,99.90
2019-06-15T07:09:01.266Z,99.90
2019-06-15T07:11:31.658Z,56.00
2019-06-15T07:14:02.093Z,1.00
2019-06-15T07:16:32.506Z,1.00
2019-06-15T07:19:02.907Z,1.00
2019-06-15T07:21:33.277Z,1.00
2019-06-15T07:24:03.702Z,1.00
2019-06-15T07:26:34.135Z,1.00
2019-06-15T07:29:04.641Z,1.00
2019-06-15T07:31:34.986Z,1.00
2019-06-15T07:34:05.383Z,1.00
2019-06-15T07:36:35.750Z,1.00
2019-06-15T07:39:07.653Z,1.00
2019-06-15T07:41:38.026Z,99.90
2019-06-15T07:44:08.426Z,99.90
2019-06-15T07:46:38.782Z,99.90
2019-06-15T07:49:09.154Z,99.90
2019-06-15T07:51:39.529Z,99.90
2019-06-15T07:54:09.961Z,99.90
2019-06-15T07:56:40.338Z,99.90
2019-06-15T07:59:10.750Z,99.90
2019-06-15T08:01:41.174Z,99.90
2019-06-15T08:04:11.580Z,99.90
2019-06-15T08:06:42.018Z,99.90
2019-06-15T08:09:12.390Z,99.90
2019-06-15T08:11:45.763Z,99.90
2019-06-15T08:14:14.842Z,99.90
2019-06-15T08:16:45.203Z,99.90
2019-06-15T08:19:15.669Z,99.90
2019-06-15T08:21:46.078Z,99.90
2019-06-15T08:24:16.457Z,99.90
2019-06-15T08:26:46.854Z,99.90
2019-06-15T08:29:17.237Z,99.90
2019-06-15T08:31:47.593Z,99.90
2019-06-15T08:34:17.983Z,99.90
2019-06-15T08:36:48.383Z,99.90
2019-06-15T08:39:18.762Z,99.90
2019-06-15T08:41:49.147Z,99.90
2019-06-15T08:44:19.529Z,99.90
2019-06-15T08:46:49.918Z,99.90
2019-06-15T08:49:20.347Z,99.90
2019-06-15T08:51:50.712Z,99.90
2019-06-15T08:54:21.128Z,99.90
2019-06-15T08:56:51.501Z,99.90
2019-06-15T08:59:21.888Z,99.90
2019-06-15T09:01:52.258Z,99.90
2019-06-15T09:04:22.658Z,99.90
2019-06-15T09:06:53.042Z,99.90
2019-06-15T09:09:23.447Z,99.90
2019-06-15T09:11:53.804Z,99.90
2019-06-15T09:14:24.497Z,99.90
2019-06-15T09:16:54.872Z,99.90
2019-06-15T09:19:25.255Z,99.90
2019-06-15T09:21:55.631Z,99.90
2019-06-15T09:24:26.021Z,99.90
2019-06-15T09:26:56.403Z,99.90
2019-06-15T09:29:26.816Z,99.90
2019-06-15T09:31:57.197Z,99.90
2019-06-15T09:34:27.573Z,99.90
2019-06-15T09:36:57.946Z,99.90
2019-06-15T09:39:31.459Z,99.90
2019-06-15T09:42:01.841Z,99.90
2019-06-15T09:44:32.313Z,99.90
2019-06-15T09:47:02.736Z,99.90
2019-06-15T09:49:33.118Z,99.90
2019-06-15T09:52:03.519Z,99.90
2019-06-15T09:54:33.933Z,99.90
2019-06-15T09:57:04.413Z,99.90
2019-06-15T09:59:38.284Z,99.90
2019-06-15T10:02:06.927Z,99.90
2019-06-15T10:04:37.321Z,99.90
2019-06-15T10:07:07.706Z,99.90
2019-06-15T10:09:38.131Z,99.90
2019-06-15T10:12:08.492Z,99.90
2019-06-15T10:14:38.870Z,99.90
2019-06-15T10:17:09.237Z,99.90
2019-06-15T10:19:39.603Z,99.90
2019-06-15T10:22:09.990Z,99.90
2019-06-15T10:24:40.443Z,99.90
2019-06-15T10:27:10.860Z,99.90
2019-06-15T10:29:42.430Z,99.90
2019-06-15T10:32:13.136Z,99.90
2019-06-15T10:34:43.550Z,99.90
2019-06-15T10:37:13.955Z,99.90
2019-06-15T10:39:44.352Z,99.90
2019-06-15T10:42:14.795Z,99.90
2019-06-15T10:44:45.190Z,99.90
2019-06-15T10:47:15.589Z,99.90
2019-06-15T10:49:45.960Z,99.90
2019-06-15T10:52:16.426Z,99.90
2019-06-15T10:54:46.828Z,99.90
2019-06-15T10:57:17.307Z,99.90
2019-06-15T10:59:56.713Z,99.90
2019-06-15T11:02:19.798Z,99.90
2019-06-15T11:04:50.705Z,99.90
2019-06-15T11:07:21.142Z,99.90
2019-06-15T11:09:51.558Z,99.90
2019-06-15T11:12:22.454Z,99.90
2019-06-15T11:14:52.842Z,99.90
2019-06-15T11:17:23.210Z,99.90
2019-06-15T11:19:53.929Z,99.90
2019-06-15T11:22:24.321Z,99.90
2019-06-15T11:24:54.771Z,99.90
2019-06-15T11:27:25.178Z,99.90
2019-06-15T11:30:12.562Z,99.90
2019-06-15T11:32:31.169Z,99.90
2019-06-15T11:35:01.666Z,99.90
2019-06-15T11:37:32.070Z,99.90
2019-06-15T11:40:02.486Z,99.90
2019-06-15T11:42:32.956Z,99.90
2019-06-15T11:45:03.345Z,99.90
2019-06-15T11:47:33.714Z,99.90
2019-06-15T11:50:04.319Z,99.90
2019-06-15T11:52:34.692Z,99.90
2019-06-15T11:55:06.018Z,99.90
2019-06-15T11:57:36.411Z,99.90
2019-06-15T12:00:07.528Z,99.90
2019-06-15T12:02:37.913Z,99.90
2019-06-15T12:05:08.290Z,99.90
2019-06-15T12:07:38.658Z,99.90
2019-06-15T12:10:09.568Z,99.90
2019-06-15T12:12:39.951Z,99.90
2019-06-15T12:15:10.438Z,99.90
2019-06-15T12:17:40.846Z,99.90
2019-06-15T12:20:11.234Z,99.90
2019-06-15T12:22:41.675Z,99.90
2019-06-15T12:25:12.130Z,99.90
2019-06-15T12:27:42.545Z,99.90
2019-06-15T12:30:14.676Z,99.90
2019-06-15T12:32:45.068Z,99.90
2019-06-15T12:35:15.454Z,99.90
2019-06-15T12:37:45.863Z,99.90
2019-06-15T12:40:16.344Z,99.90
2019-06-15T12:42:46.749Z,99.90
2019-06-15T12:45:17.118Z,99.90
2019-06-15T12:47:47.541Z,99.90
2019-06-15T12:50:17.925Z,99.90
2019-06-15T12:52:48.382Z,99.90
2019-06-15T12:55:18.733Z,99.90
2019-06-15T12:57:52.654Z,99.90
2019-06-15T13:00:26.041Z,99.90
2019-06-15T13:02:56.423Z,99.90
2019-06-15T13:05:26.913Z,99.90
2019-06-15T13:07:57.374Z,99.90
2019-06-15T13:10:27.747Z,99.90
2019-06-15T13:12:58.232Z,99.90
2019-06-15T13:15:28.630Z,99.90
2019-06-15T13:17:59.030Z,99.90
2019-06-15T13:20:30.782Z,99.90
2019-06-15T13:23:01.349Z,99.90
2019-06-15T13:25:31.755Z,99.90
2019-06-15T13:28:02.236Z,99.90
2019-06-15T13:30:32.683Z,99.90
2019-06-15T13:33:03.090Z,99.90
2019-06-15T13:35:33.533Z,99.90
2019-06-15T13:38:03.942Z,99.90
2019-06-15T13:40:34.401Z,99.90
2019-06-15T13:43:04.888Z,99.90
2019-06-15T13:45:35.275Z,99.90
2019-06-15T13:48:05.772Z,99.90
2019-06-15T13:50:36.139Z,99.90
2019-06-15T13:53:06.564Z,99.90
2019-06-15T13:55:37.007Z,99.90
2019-06-15T13:58:07.418Z,99.90
2019-06-15T14:00:37.769Z,99.90
2019-06-15T14:03:08.154Z,99.90
2019-06-15T14:05:38.550Z,99.90
2019-06-15T14:08:08.939Z,99.90
2019-06-15T14:10:39.347Z,99.90
2019-06-15T14:13:09.731Z,99.90
2019-06-15T14:15:40.095Z,99.90
2019-06-15T14:18:10.513Z,99.90
2019-06-15T14:20:40.905Z,99.90
2019-06-15T14:23:11.307Z,99.90
2019-06-15T14:25:41.695Z,99.90
2019-06-15T14:28:12.114Z,99.90
2019-06-15T14:30:42.545Z,99.90
2019-06-15T14:33:12.945Z,99.90
2019-06-15T14:35:44.172Z,99.90
2019-06-15T14:38:14.795Z,99.90
2019-06-15T14:40:45.162Z,99.90
2019-06-15T14:43:15.566Z,99.90
2019-06-15T14:45:58.396Z,99.90
2019-06-15T14:48:18.013Z,99.90
2019-06-15T14:50:48.416Z,99.90
2019-06-15T14:53:18.797Z,99.90
2019-06-15T14:55:49.193Z,99.90
2019-06-15T14:58:19.590Z,99.90
2019-06-15T15:00:50.025Z,99.90
2019-06-15T15:03:20.391Z,99.90
2019-06-15T15:05:50.777Z,99.90
2019-06-15T15:08:21.220Z,99.90
2019-06-15T15:10:51.593Z,99.90
2019-06-15T15:13:22.015Z,99.90
2019-06-15T15:15:53.214Z,99.90
2019-06-15T15:18:23.720Z,99.90
2019-06-15T15:20:56.326Z,99.90
2019-06-15T15:23:26.157Z,99.90
2019-06-15T15:25:57.601Z,99.90
2019-06-15T15:28:31.085Z,99.90
2019-06-15T15:31:00.299Z,99.90
2019-06-15T15:33:30.761Z,99.90
2019-06-15T15:36:01.142Z,99.90
2019-06-15T15:38:31.576Z,99.90
2019-06-15T15:41:02.007Z,99.90
2019-06-15T15:43:32.402Z,99.90
2019-06-15T15:46:02.921Z,99.90
2019-06-15T15:48:33.366Z,99.90
2019-06-15T15:51:06.365Z,99.90
2019-06-15T15:53:37.459Z,99.90
2019-06-15T15:56:08.088Z,99.90
2019-06-15T15:58:38.502Z,99.90
2019-06-15T16:01:08.886Z,99.90
2019-06-15T16:03:39.574Z,99.90
2019-06-15T16:06:09.943Z,99.90
2019-06-15T16:08:40.362Z,99.90
2019-06-15T16:11:10.781Z,99.90
2019-06-15T16:13:41.215Z,99.90
2019-06-15T16:16:11.579Z,99.90
2019-06-15T16:18:41.976Z,99.90
2019-06-15T16:21:12.346Z,99.90
2019-06-15T16:23:42.746Z,99.90
2019-06-15T16:26:13.142Z,99.90
2019-06-15T16:28:45.934Z,99.90
2019-06-15T16:31:18.734Z,99.90
2019-06-15T16:33:47.694Z,99.90
2019-06-15T16:36:18.046Z,99.90
2019-06-15T16:38:48.485Z,99.90
2019-06-15T16:41:18.859Z,99.90
2019-06-15T16:43:49.229Z,99.90
2019-06-15T16:46:19.619Z,99.90
2019-06-15T16:48:50.022Z,99.90
2019-06-15T16:51:20.358Z,99.90
2019-06-15T16:53:50.750Z,99.90
2019-06-15T16:56:21.147Z,99.90
2019-06-15T16:58:51.543Z,99.90
2019-06-15T17:01:21.938Z,99.90
2019-06-15T17:03:52.317Z,99.90
2019-06-15T17:06:22.694Z,99.90
2019-06-15T17:08:53.104Z,99.90
2019-06-15T17:11:23.546Z,99.90
2019-06-15T17:13:56.208Z,99.90
2019-06-15T17:16:26.154Z,99.90
2019-06-15T17:18:56.683Z,99.90
2019-06-15T17:21:27.053Z,99.90
2019-06-15T17:23:57.458Z,99.90
2019-06-15T17:26:27.853Z,99.90
2019-06-15T17:28:58.275Z,99.90
2019-06-15T17:31:28.638Z,99.90
2019-06-15T17:33:59.025Z,99.90
2019-06-15T17:36:29.540Z,99.90
2019-06-15T17:38:59.939Z,99.90
2019-06-15T17:41:30.294Z,99.90
2019-06-15T17:44:00.702Z,99.90
2019-06-15T17:46:31.093Z,99.90
2019-06-15T17:49:01.498Z,99.90
2019-06-15T17:51:31.865Z,99.90
2019-06-15T17:54:02.267Z,99.90
2019-06-15T17:56:32.636Z,99.90
2019-06-15T17:59:03.070Z,99.90
2019-06-15T18:01:36.273Z,99.90
2019-06-15T18:04:07.878Z,99.90
2019-06-15T18:06:38.463Z,99.90
2019-06-15T18:09:08.922Z,99.90
2019-06-15T18:11:39.365Z,99.90
2019-06-15T18:14:09.812Z,99.90
2019-06-15T18:16:40.169Z,99.90
2019-06-15T18:19:10.610Z,99.90
2019-06-15T18:21:41.268Z,99.90
2019-06-15T18:24:11.761Z,99.90
2019-06-15T18:26:42.115Z,99.90
2019-06-15T18:29:12.503Z,99.90
2019-06-15T18:31:42.849Z,99.90
2019-06-15T18:34:16.112Z,99.90
2019-06-15T18:36:45.313Z,99.90
2019-06-15T18:39:16.523Z,99.90
2019-06-15T18:41:47.197Z,99.90
2019-06-15T18:44:17.619Z,99.90
2019-06-15T18:46:47.988Z,99.90
2019-06-15T18:49:18.386Z,99.90
2019-06-15T18:51:48.822Z,99.90
2019-06-15T18:54:19.240Z,99.90
2019-06-15T18:56:49.670Z,99.90
2019-06-15T18:59:20.111Z,99.90
2019-06-15T19:01:50.542Z,99.90
2019-06-15T19:04:26.990Z,99.90
2019-06-15T19:06:52.997Z,99.90
2019-06-15T19:09:23.399Z,99.90
2019-06-15T19:11:56.461Z,99.90
2019-06-15T19:14:27.090Z,99.90
2019-06-15T19:16:57.762Z,99.90
2019-06-15T19:19:28.234Z,99.90
2019-06-15T19:21:58.620Z,99.90
2019-06-15T19:24:29.034Z,99.90
2019-06-15T19:26:59.512Z,99.90
2019-06-15T19:29:29.919Z,99.90
2019-06-15T19:32:00.286Z,99.90
2019-06-15T19:34:43.327Z,99.90
2019-06-15T19:37:02.817Z,99.90
2019-06-15T19:39:33.310Z,99.90
2019-06-15T19:42:03.734Z,99.90
2019-06-15T19:44:34.106Z,99.90
2019-06-15T19:47:07.180Z,99.90
2019-06-15T19:49:37.439Z,99.90
2019-06-15T19:52:07.814Z,99.90
2019-06-15T19:54:38.201Z,99.90
2019-06-15T19:57:08.598Z,99.90
2019-06-15T19:59:39.045Z,99.90
2019-06-15T20:02:10.865Z,99.90
2019-06-15T20:04:53.926Z,99.90
2019-06-15T20:07:13.526Z,99.90
2019-06-15T20:09:46.133Z,99.90
2019-06-15T20:12:21.141Z,99.90
2019-06-15T20:14:48.122Z,99.90
2019-06-15T20:17:18.522Z,99.90
2019-06-15T20:19:48.972Z,99.90
2019-06-15T20:22:19.366Z,99.90
2019-06-15T20:24:49.794Z,99.90
2019-06-15T20:27:20.194Z,99.90
2019-06-15T20:29:50.591Z,99.90
2019-06-15T20:32:21.049Z,99.90
2019-06-15T20:34:51.451Z,99.90
2019-06-15T20:37:21.827Z,99.90
2019-06-15T20:39:52.314Z,99.90
2019-06-15T20:42:22.691Z,99.90
2019-06-15T20:44:53.118Z,99.90
2019-06-15T20:47:23.497Z,99.90
2019-06-15T20:49:53.881Z,99.90
2019-06-15T20:52:24.250Z,99.90
2019-06-15T20:54:56.964Z,99.90
2019-06-15T20:57:26.837Z,99.90
2019-06-15T20:59:57.243Z,99.90
2019-06-15T21:02:27.654Z,99.90
2019-06-15T21:04:58.059Z,99.90
2019-06-15T21:07:28.403Z,99.90
2019-06-15T21:09:58.786Z,99.90
2019-06-15T21:12:29.186Z,99.90
2019-06-15T21:14:59.589Z,99.90
2019-06-15T21:17:29.953Z,99.90
2019-06-15T21:20:00.381Z,99.90
2019-06-15T21:22:30.886Z,99.90
2019-06-15T21:25:01.342Z,99.90
2019-06-15T21:27:31.732Z,99.90
2019-06-15T21:30:02.254Z,99.90
2019-06-15T21:32:32.747Z,99.90
2019-06-15T21:35:03.225Z,99.90
2019-06-15T21:37:33.599Z,99.90
2019-06-15T21:40:06.091Z,99.90
2019-06-15T21:42:36.344Z,99.90
2019-06-15T21:45:07.571Z,99.90
2019-06-15T21:47:38.202Z,99.90
2019-06-15T21:50:08.906Z,99.90
2019-06-15T21:52:39.273Z,99.90
2019-06-15T21:55:09.870Z,1.00
2019-06-15T21:57:40.281Z,1.00
2019-06-15T22:00:17.199Z,99.90
2019-06-15T22:02:47.210Z,1.00
2019-06-15T22:05:17.893Z,1.00
2019-06-15T22:07:48.282Z,99.90
2019-06-15T22:10:18.790Z,1.00
2019-06-15T22:12:49.248Z,1.00
2019-06-15T22:15:19.634Z,1.00
2019-06-15T22:17:50.036Z,1.00
2019-06-15T22:20:20.791Z,1.00
2019-06-15T22:22:51.238Z,1.00
2019-06-15T22:25:21.617Z,1.00
2019-06-15T22:27:52.021Z,1.00
2019-06-15T22:30:22.480Z,1.00
2019-06-15T22:32:52.862Z,1.00
2019-06-15T22:35:23.261Z,1.00
2019-06-15T22:37:56.111Z,1.00
2019-06-15T22:40:25.726Z,1.00
2019-06-15T22:42:56.346Z,1.00
2019-06-15T22:45:26.779Z,1.00
2019-06-15T22:47:57.172Z,1.00
2019-06-15T22:50:27.649Z,1.00
2019-06-15T22:52:58.101Z,1.00
2019-06-15T22:55:30.193Z,1.00
2019-06-15T22:58:00.613Z,1.00
2019-06-15T23:00:33.213Z,1.00
2019-06-15T23:03:03.037Z,1.00
2019-06-15T23:05:33.471Z,1.00
2019-06-15T23:08:03.887Z,1.00
2019-06-15T23:10:36.667Z,1.00
2019-06-15T23:13:06.506Z,1.00
2019-06-15T23:15:37.245Z,1.00
2019-06-15T23:18:07.738Z,1.00
2019-06-15T23:20:38.132Z,1.00
2019-06-15T23:23:08.483Z,1.00
2019-06-15T23:25:38.866Z,1.00
2019-06-15T23:28:09.447Z,1.00
2019-06-15T23:30:39.864Z,1.00
2019-06-15T23:33:10.299Z,1.00
2019-06-15T23:35:46.524Z,1.00
2019-06-15T23:38:17.168Z,1.00
2019-06-15T23:40:51.317Z,1.00
2019-06-15T23:43:21.712Z,1.00
2019-06-15T23:45:52.192Z,1.00
2019-06-15T23:48:22.637Z,1.00
2019-06-15T23:50:53.039Z,1.00
2019-06-15T23:53:25.937Z,1.00
2019-06-15T23:55:56.847Z,1.00
2019-06-15T23:58:27.525Z,1.00
